sensor_id;sensor_type;location;lat;lon;timestamp;pressure;altitude;pressure_sealevel;temperature;humidity
73870;BME280;64924;42.140;24.762;2023-12-07T00:01:10;99338.41;;;8.73;70.53
73870;BME280;64924;42.140;24.762;2023-12-07T00:03:35;99314.97;;;8.65;70.41
73870;BME280;64924;42.140;24.762;2023-12-07T00:06:01;99321.81;;;8.61;70.42
73870;BME280;64924;42.140;24.762;2023-12-07T00:08:27;99322.63;;;8.62;70.24
73870;BME280;64924;42.140;24.762;2023-12-07T00:10:52;99323.47;;;8.62;70.53
73870;BME280;64924;42.140;24.762;2023-12-07T00:13:18;99318.72;;;8.64;70.25
73870;BME280;64924;42.140;24.762;2023-12-07T00:15:43;99279.56;;;8.46;70.38
73870;BME280;64924;42.140;24.762;2023-12-07T00:18:09;99332.31;;;8.71;70.06
73870;BME280;64924;42.140;24.762;2023-12-07T00:20:34;99305.94;;;8.58;70.01
73870;BME280;64924;42.140;24.762;2023-12-07T00:23:00;99325.03;;;8.71;70.04
73870;BME280;64924;42.140;24.762;2023-12-07T00:25:26;99326.06;;;8.70;69.67
73870;BME280;64924;42.140;24.762;2023-12-07T00:27:51;99317.09;;;8.70;70.13
73870;BME280;64924;42.140;24.762;2023-12-07T00:30:17;99312.66;;;8.62;69.69
73870;BME280;64924;42.140;24.762;2023-12-07T00:32:43;99324.97;;;8.65;69.69
73870;BME280;64924;42.140;24.762;2023-12-07T00:35:09;99323.94;;;8.66;69.86
73870;BME280;64924;42.140;24.762;2023-12-07T00:37:35;99322.63;;;8.62;69.84
73870;BME280;64924;42.140;24.762;2023-12-07T00:40:00;99321.16;;;8.59;69.83
73870;BME280;64924;42.140;24.762;2023-12-07T00:42:27;99332.63;;;8.61;69.91
73870;BME280;64924;42.140;24.762;2023-12-07T00:44:54;99328.91;;;8.62;69.56
73870;BME280;64924;42.140;24.762;2023-12-07T00:47:20;99330.69;;;8.55;69.80
73870;BME280;64924;42.140;24.762;2023-12-07T00:49:46;99336.09;;;8.55;69.58
73870;BME280;64924;42.140;24.762;2023-12-07T00:52:11;99324.66;;;8.53;69.62
73870;BME280;64924;42.140;24.762;2023-12-07T00:54:37;99298.00;;;8.35;69.85
73870;BME280;64924;42.140;24.762;2023-12-07T00:57:03;99336.38;;;8.60;69.77
73870;BME280;64924;42.140;24.762;2023-12-07T00:59:28;99312.72;;;8.48;69.65
73870;BME280;64924;42.140;24.762;2023-12-07T01:02:00;99285.94;;;8.38;69.67
73870;BME280;64924;42.140;24.762;2023-12-07T01:04:27;99314.72;;;8.60;69.68
73870;BME280;64924;42.140;24.762;2023-12-07T01:06:53;99321.63;;;8.63;69.79
73870;BME280;64924;42.140;24.762;2023-12-07T01:09:18;99331.03;;;8.67;69.52
73870;BME280;64924;42.140;24.762;2023-12-07T01:11:44;99295.63;;;8.47;69.49
73870;BME280;64924;42.140;24.762;2023-12-07T01:14:10;99321.03;;;8.67;69.36
73870;BME280;64924;42.140;24.762;2023-12-07T01:16:36;99322.78;;;8.75;69.40
73870;BME280;64924;42.140;24.762;2023-12-07T01:19:02;99325.69;;;8.74;69.55
73870;BME280;64924;42.140;24.762;2023-12-07T01:21:28;99324.66;;;8.75;69.49
73870;BME280;64924;42.140;24.762;2023-12-07T01:23:53;99323.44;;;8.77;69.47
73870;BME280;64924;42.140;24.762;2023-12-07T01:26:19;99323.25;;;8.79;69.59
73870;BME280;64924;42.140;24.762;2023-12-07T01:28:44;99307.00;;;8.79;69.09
73870;BME280;64924;42.140;24.762;2023-12-07T01:31:10;99321.66;;;8.84;69.01
73870;BME280;64924;42.140;24.762;2023-12-07T01:33:35;99311.38;;;8.80;69.18
73870;BME280;64924;42.140;24.762;2023-12-07T01:36:01;99321.84;;;8.83;69.42
73870;BME280;64924;42.140;24.762;2023-12-07T01:38:26;99313.44;;;8.78;69.08
73870;BME280;64924;42.140;24.762;2023-12-07T01:40:52;99317.94;;;8.70;69.77
73870;BME280;64924;42.140;24.762;2023-12-07T01:43:21;99307.50;;;8.67;69.53
73870;BME280;64924;42.140;24.762;2023-12-07T01:45:47;99320.00;;;8.68;69.73
73870;BME280;64924;42.140;24.762;2023-12-07T01:48:13;99326.28;;;8.54;69.82
73870;BME280;64924;42.140;24.762;2023-12-07T01:50:39;99323.91;;;8.45;70.39
73870;BME280;64924;42.140;24.762;2023-12-07T01:53:04;99312.75;;;8.33;70.62
73870;BME280;64924;42.140;24.762;2023-12-07T01:55:31;99318.16;;;8.33;70.72
73870;BME280;64924;42.140;24.762;2023-12-07T01:57:58;99315.59;;;8.31;70.95
73870;BME280;64924;42.140;24.762;2023-12-07T02:00:24;99317.84;;;8.28;70.52
73870;BME280;64924;42.140;24.762;2023-12-07T02:02:50;99320.28;;;8.37;70.68
73870;BME280;64924;42.140;24.762;2023-12-07T02:05:16;99320.09;;;8.39;70.50
73870;BME280;64924;42.140;24.762;2023-12-07T02:07:43;99313.09;;;8.45;70.47
73870;BME280;64924;42.140;24.762;2023-12-07T02:10:11;99320.06;;;8.54;70.20
73870;BME280;64924;42.140;24.762;2023-12-07T02:12:36;99314.78;;;8.46;70.02
73870;BME280;64924;42.140;24.762;2023-12-07T02:15:03;99287.34;;;8.34;70.11
73870;BME280;64924;42.140;24.762;2023-12-07T02:20:12;99327.47;;;8.66;70.09
73870;BME280;64924;42.140;24.762;2023-12-07T02:22:43;99323.47;;;8.62;69.81
73870;BME280;64924;42.140;24.762;2023-12-07T02:25:14;99330.56;;;8.42;70.62
73870;BME280;64924;42.140;24.762;2023-12-07T02:27:43;99317.28;;;8.47;70.90
73870;BME280;64924;42.140;24.762;2023-12-07T02:30:12;99327.28;;;8.47;70.81
73870;BME280;64924;42.140;24.762;2023-12-07T02:32:39;99307.94;;;8.50;70.63
73870;BME280;64924;42.140;24.762;2023-12-07T02:35:09;99310.19;;;8.46;70.74
73870;BME280;64924;42.140;24.762;2023-12-07T02:38:05;99309.38;;;8.67;70.47
73870;BME280;64924;42.140;24.762;2023-12-07T02:40:31;99318.81;;;8.56;70.76
73870;BME280;64924;42.140;24.762;2023-12-07T02:42:58;99315.09;;;8.57;70.16
73870;BME280;64924;42.140;24.762;2023-12-07T02:45:25;99310.84;;;8.48;70.70
73870;BME280;64924;42.140;24.762;2023-12-07T02:47:51;99314.13;;;8.44;70.95
73870;BME280;64924;42.140;24.762;2023-12-07T02:50:17;99317.38;;;8.24;71.67
73870;BME280;64924;42.140;24.762;2023-12-07T02:52:42;99265.41;;;7.78;72.31
73870;BME280;64924;42.140;24.762;2023-12-07T02:55:08;99300.47;;;7.71;73.19
73870;BME280;64924;42.140;24.762;2023-12-07T02:57:34;99312.50;;;7.69;73.88
73870;BME280;64924;42.140;24.762;2023-12-07T03:00:00;99320.53;;;7.77;73.79
73870;BME280;64924;42.140;24.762;2023-12-07T03:02:26;99306.88;;;7.85;73.49
73870;BME280;64924;42.140;24.762;2023-12-07T03:04:52;99306.03;;;7.85;73.23
73870;BME280;64924;42.140;24.762;2023-12-07T03:07:17;99311.63;;;7.83;73.31
73870;BME280;64924;42.140;24.762;2023-12-07T03:09:43;99306.59;;;7.80;73.07
73870;BME280;64924;42.140;24.762;2023-12-07T03:12:08;99292.13;;;7.44;73.47
73870;BME280;64924;42.140;24.762;2023-12-07T03:14:34;99287.88;;;7.34;73.78
73870;BME280;64924;42.140;24.762;2023-12-07T03:16:59;99322.34;;;7.47;74.71
73870;BME280;64924;42.140;24.762;2023-12-07T03:19:25;99324.69;;;7.50;74.39
73870;BME280;64924;42.140;24.762;2023-12-07T03:21:50;99313.88;;;7.50;74.30
73870;BME280;64924;42.140;24.762;2023-12-07T03:24:16;99313.31;;;7.55;74.06
73870;BME280;64924;42.140;24.762;2023-12-07T03:26:41;99283.41;;;7.42;73.80
73870;BME280;64924;42.140;24.762;2023-12-07T03:29:07;99309.31;;;7.65;73.15
73870;BME280;64924;42.140;24.762;2023-12-07T03:31:33;99305.41;;;7.68;73.31
73870;BME280;64924;42.140;24.762;2023-12-07T03:33:58;99316.13;;;7.76;73.24
73870;BME280;64924;42.140;24.762;2023-12-07T03:36:26;99314.72;;;7.80;72.90
73870;BME280;64924;42.140;24.762;2023-12-07T03:38:51;99318.34;;;7.87;72.35
73870;BME280;64924;42.140;24.762;2023-12-07T03:41:17;99310.25;;;7.87;72.23
73870;BME280;64924;42.140;24.762;2023-12-07T03:43:42;99306.31;;;7.90;72.15
73870;BME280;64924;42.140;24.762;2023-12-07T03:46:08;99273.16;;;7.66;72.12
73870;BME280;64924;42.140;24.762;2023-12-07T03:48:34;99307.53;;;7.87;71.95
73870;BME280;64924;42.140;24.762;2023-12-07T03:51:00;99306.88;;;7.85;72.09
73870;BME280;64924;42.140;24.762;2023-12-07T03:53:25;99305.97;;;7.78;72.15
73870;BME280;64924;42.140;24.762;2023-12-07T03:55:51;99301.97;;;7.74;72.31
73870;BME280;64924;42.140;24.762;2023-12-07T03:58:17;99304.84;;;7.72;72.72
73870;BME280;64924;42.140;24.762;2023-12-07T04:00:44;99297.94;;;7.70;72.83
73870;BME280;64924;42.140;24.762;2023-12-07T04:03:09;99301.31;;;7.72;72.79
73870;BME280;64924;42.140;24.762;2023-12-07T04:05:35;99302.63;;;7.76;72.67
73870;BME280;64924;42.140;24.762;2023-12-07T04:08:00;99300.56;;;7.78;72.37
73870;BME280;64924;42.140;24.762;2023-12-07T04:10:26;99308.69;;;7.78;72.25
73870;BME280;64924;42.140;24.762;2023-12-07T04:12:51;99299.25;;;7.74;72.55
73870;BME280;64924;42.140;24.762;2023-12-07T04:15:20;99266.53;;;7.54;72.31
73870;BME280;64924;42.140;24.762;2023-12-07T04:17:46;99298.59;;;7.87;71.97
73870;BME280;64924;42.140;24.762;2023-12-07T04:20:12;99305.66;;;7.88;71.62
73870;BME280;64924;42.140;24.762;2023-12-07T04:22:38;99309.88;;;7.90;71.77
73870;BME280;64924;42.140;24.762;2023-12-07T04:25:05;99314.06;;;7.93;71.60
73870;BME280;64924;42.140;24.762;2023-12-07T04:27:31;99309.69;;;7.92;71.45
73870;BME280;64924;42.140;24.762;2023-12-07T04:29:57;99306.78;;;7.93;71.47
73870;BME280;64924;42.140;24.762;2023-12-07T04:32:23;99294.66;;;7.89;71.23
73870;BME280;64924;42.140;24.762;2023-12-07T04:34:48;99303.91;;;7.95;71.23
73870;BME280;64924;42.140;24.762;2023-12-07T04:37:14;99302.13;;;7.87;71.32
73870;BME280;64924;42.140;24.762;2023-12-07T04:39:39;99300.25;;;7.88;71.36
73870;BME280;64924;42.140;24.762;2023-12-07T04:42:05;99311.06;;;7.88;71.13
73870;BME280;64924;42.140;24.762;2023-12-07T04:44:30;99320.03;;;7.88;71.72
73870;BME280;64924;42.140;24.762;2023-12-07T04:46:56;99310.59;;;7.84;71.58
73870;BME280;64924;42.140;24.762;2023-12-07T04:49:21;99318.53;;;7.86;71.62
73870;BME280;64924;42.140;24.762;2023-12-07T04:51:46;99324.78;;;7.86;71.23
73870;BME280;64924;42.140;24.762;2023-12-07T04:54:13;99290.59;;;7.64;71.52
73870;BME280;64924;42.140;24.762;2023-12-07T04:56:40;99341.59;;;7.67;71.60
73870;BME280;64924;42.140;24.762;2023-12-07T04:59:06;99325.69;;;7.49;72.15
73870;BME280;64924;42.140;24.762;2023-12-07T05:01:31;99324.56;;;7.44;72.29
73870;BME280;64924;42.140;24.762;2023-12-07T05:03:57;99324.56;;;7.44;72.72
73870;BME280;64924;42.140;24.762;2023-12-07T05:06:22;99319.63;;;7.47;72.32
73870;BME280;64924;42.140;24.762;2023-12-07T05:08:48;99331.94;;;7.50;72.29
73870;BME280;64924;42.140;24.762;2023-12-07T05:11:13;99329.06;;;7.51;71.93
73870;BME280;64924;42.140;24.762;2023-12-07T05:13:39;99339.56;;;7.46;71.72
73870;BME280;64924;42.140;24.762;2023-12-07T05:16:04;99342.47;;;7.45;71.71
73870;BME280;64924;42.140;24.762;2023-12-07T05:18:30;99304.22;;;7.18;72.11
73870;BME280;64924;42.140;24.762;2023-12-07T05:20:55;99342.28;;;7.46;72.25
73870;BME280;64924;42.140;24.762;2023-12-07T05:23:21;99340.72;;;7.37;72.19
73870;BME280;64924;42.140;24.762;2023-12-07T05:25:46;99344.16;;;7.46;71.98
73870;BME280;64924;42.140;24.762;2023-12-07T05:28:12;99343.31;;;7.45;71.97
73870;BME280;64924;42.140;24.762;2023-12-07T05:30:37;99354.94;;;7.46;72.32
73870;BME280;64924;42.140;24.762;2023-12-07T05:33:03;99353.28;;;7.45;72.09
73870;BME280;64924;42.140;24.762;2023-12-07T05:35:29;99361.47;;;7.36;72.46
73870;BME280;64924;42.140;24.762;2023-12-07T05:37:54;99369.41;;;7.38;72.50
73870;BME280;64924;42.140;24.762;2023-12-07T05:40:19;99380.88;;;7.40;72.60
73870;BME280;64924;42.140;24.762;2023-12-07T05:42:49;99367.53;;;7.38;72.67
73870;BME280;64924;42.140;24.762;2023-12-07T05:45:15;99378.00;;;7.42;72.42
73870;BME280;64924;42.140;24.762;2023-12-07T05:47:41;99383.84;;;7.45;72.60
73870;BME280;64924;42.140;24.762;2023-12-07T05:50:07;99379.00;;;7.41;72.24
73870;BME280;64924;42.140;24.762;2023-12-07T05:52:32;99389.53;;;7.50;72.07
73870;BME280;64924;42.140;24.762;2023-12-07T05:54:58;99381.63;;;7.49;71.75
73870;BME280;64924;42.140;24.762;2023-12-07T05:57:23;99394.69;;;7.60;71.71
73870;BME280;64924;42.140;24.762;2023-12-07T05:59:49;99398.34;;;7.67;71.32
73870;BME280;64924;42.140;24.762;2023-12-07T06:02:14;99392.59;;;7.70;71.30
73870;BME280;64924;42.140;24.762;2023-12-07T06:04:40;99360.09;;;7.55;71.13
73870;BME280;64924;42.140;24.762;2023-12-07T06:07:06;99402.56;;;7.84;71.21
73870;BME280;64924;42.140;24.762;2023-12-07T06:09:31;99350.13;;;7.56;70.92
73870;BME280;64924;42.140;24.762;2023-12-07T06:11:58;99361.34;;;7.67;71.03
73870;BME280;64924;42.140;24.762;2023-12-07T06:14:23;99386.25;;;7.78;71.18
73870;BME280;64924;42.140;24.762;2023-12-07T06:16:49;99382.59;;;7.85;70.95
73870;BME280;64924;42.140;24.762;2023-12-07T06:19:14;99384.56;;;7.91;70.77
73870;BME280;64924;42.140;24.762;2023-12-07T06:21:40;99397.66;;;8.02;70.62
73870;BME280;64924;42.140;24.762;2023-12-07T06:24:06;99400.28;;;8.11;70.38
73870;BME280;64924;42.140;24.762;2023-12-07T06:26:32;99351.47;;;7.89;70.20
73870;BME280;64924;42.140;24.762;2023-12-07T06:28:58;99376.56;;;7.98;70.02
73870;BME280;64924;42.140;24.762;2023-12-07T06:31:24;99400.53;;;8.30;70.03
73870;BME280;64924;42.140;24.762;2023-12-07T06:33:49;99406.06;;;8.37;69.60
73870;BME280;64924;42.140;24.762;2023-12-07T06:36:22;99403.91;;;8.47;69.39
73870;BME280;64924;42.140;24.762;2023-12-07T06:38:48;99416.91;;;8.52;69.09
73870;BME280;64924;42.140;24.762;2023-12-07T06:41:14;99413.41;;;8.58;69.08
73870;BME280;64924;42.140;24.762;2023-12-07T06:43:41;99410.31;;;8.61;68.87
73870;BME280;64924;42.140;24.762;2023-12-07T06:46:07;99412.09;;;8.68;68.93
73870;BME280;64924;42.140;24.762;2023-12-07T06:48:33;99408.91;;;8.80;68.45
73870;BME280;64924;42.140;24.762;2023-12-07T06:50:59;99419.81;;;8.86;68.31
73870;BME280;64924;42.140;24.762;2023-12-07T06:53:24;99358.03;;;8.60;68.13
73870;BME280;64924;42.140;24.762;2023-12-07T06:55:50;99414.53;;;8.99;68.20
73870;BME280;64924;42.140;24.762;2023-12-07T06:58:15;99406.00;;;9.02;68.15
73870;BME280;64924;42.140;24.762;2023-12-07T07:00:41;99412.41;;;9.16;68.12
73870;BME280;64924;42.140;24.762;2023-12-07T07:03:06;99410.59;;;9.02;68.78
73870;BME280;64924;42.140;24.762;2023-12-07T07:05:32;99370.13;;;8.79;68.67
73870;BME280;64924;42.140;24.762;2023-12-07T07:07:57;99409.06;;;9.14;68.39
73870;BME280;64924;42.140;24.762;2023-12-07T07:10:23;99384.22;;;9.11;68.34
73870;BME280;64924;42.140;24.762;2023-12-07T07:12:49;99409.81;;;9.51;68.17
73870;BME280;64924;42.140;24.762;2023-12-07T07:15:15;99373.94;;;9.49;67.70
73870;BME280;64924;42.140;24.762;2023-12-07T07:17:41;99409.13;;;9.91;67.20
73870;BME280;64924;42.140;24.762;2023-12-07T07:20:07;99410.41;;;9.95;66.05
73870;BME280;64924;42.140;24.762;2023-12-07T07:22:33;99411.75;;;10.13;65.58
73870;BME280;64924;42.140;24.762;2023-12-07T07:25:00;99325.69;;;9.72;64.76
73870;BME280;64924;42.140;24.762;2023-12-07T07:27:25;99419.69;;;10.14;64.77
73870;BME280;64924;42.140;24.762;2023-12-07T07:29:50;99381.63;;;10.01;64.04
73870;BME280;64924;42.140;24.762;2023-12-07T07:32:16;99429.31;;;10.17;64.00
73870;BME280;64924;42.140;24.762;2023-12-07T07:34:42;99421.66;;;10.20;64.06
73870;BME280;64924;42.140;24.762;2023-12-07T07:37:07;99428.56;;;10.23;63.57
73870;BME280;64924;42.140;24.762;2023-12-07T07:39:32;99419.38;;;10.24;63.79
73870;BME280;64924;42.140;24.762;2023-12-07T07:41:58;99420.66;;;10.28;63.56
73870;BME280;64924;42.140;24.762;2023-12-07T07:44:25;99434.09;;;10.43;63.57
73870;BME280;64924;42.140;24.762;2023-12-07T07:46:50;99436.25;;;10.54;62.99
73870;BME280;64924;42.140;24.762;2023-12-07T07:49:16;99428.81;;;10.69;63.08
73870;BME280;64924;42.140;24.762;2023-12-07T07:51:41;99427.59;;;10.85;62.21
73870;BME280;64924;42.140;24.762;2023-12-07T07:54:06;99444.31;;;10.82;62.73
73870;BME280;64924;42.140;24.762;2023-12-07T07:56:32;99441.00;;;10.86;62.28
73870;BME280;64924;42.140;24.762;2023-12-07T07:58:57;99439.72;;;10.82;62.48
73870;BME280;64924;42.140;24.762;2023-12-07T08:01:26;99438.91;;;10.88;62.19
73870;BME280;64924;42.140;24.762;2023-12-07T08:03:51;99442.84;;;10.79;62.51
73870;BME280;64924;42.140;24.762;2023-12-07T08:06:17;99429.44;;;10.71;62.49
73870;BME280;64924;42.140;24.762;2023-12-07T08:08:42;99432.38;;;10.69;62.68
73870;BME280;64924;42.140;24.762;2023-12-07T08:11:08;99449.75;;;10.75;62.45
73870;BME280;64924;42.140;24.762;2023-12-07T08:13:33;99412.44;;;10.56;62.73
73870;BME280;64924;42.140;24.762;2023-12-07T08:15:58;99450.97;;;10.73;62.90
73870;BME280;64924;42.140;24.762;2023-12-07T08:18:24;99445.91;;;10.63;63.30
73870;BME280;64924;42.140;24.762;2023-12-07T08:20:51;99458.41;;;10.57;63.83
73870;BME280;64924;42.140;24.762;2023-12-07T08:23:16;99416.75;;;10.44;63.38
73870;BME280;64924;42.140;24.762;2023-12-07T08:25:42;99456.19;;;10.67;63.78
73870;BME280;64924;42.140;24.762;2023-12-07T08:28:09;99425.75;;;10.44;62.95
73870;BME280;64924;42.140;24.762;2023-12-07T08:30:36;99443.59;;;10.60;63.47
73870;BME280;64924;42.140;24.762;2023-12-07T08:33:02;99448.03;;;10.67;63.29
73870;BME280;64924;42.140;24.762;2023-12-07T08:35:27;99465.41;;;10.80;63.33
73870;BME280;64924;42.140;24.762;2023-12-07T08:37:53;99451.88;;;10.93;62.69
73870;BME280;64924;42.140;24.762;2023-12-07T08:40:18;99459.91;;;11.08;62.29
73870;BME280;64924;42.140;24.762;2023-12-07T08:42:46;99458.84;;;11.15;62.13
73870;BME280;64924;42.140;24.762;2023-12-07T08:45:12;99468.28;;;11.19;61.83
73870;BME280;64924;42.140;24.762;2023-12-07T08:47:39;99458.69;;;11.23;62.07
73870;BME280;64924;42.140;24.762;2023-12-07T08:50:05;99460.75;;;11.21;62.24
73870;BME280;64924;42.140;24.762;2023-12-07T08:52:33;99454.91;;;11.24;62.00
73870;BME280;64924;42.140;24.762;2023-12-07T08:54:58;99447.38;;;11.13;62.40
73870;BME280;64924;42.140;24.762;2023-12-07T08:57:24;99442.78;;;11.20;62.30
73870;BME280;64924;42.140;24.762;2023-12-07T08:59:49;99440.88;;;11.21;62.22
73870;BME280;64924;42.140;24.762;2023-12-07T09:02:15;99433.59;;;11.34;62.24
73870;BME280;64924;42.140;24.762;2023-12-07T09:04:40;99441.19;;;11.65;61.42
73870;BME280;64924;42.140;24.762;2023-12-07T09:07:06;99433.91;;;11.79;61.18
73870;BME280;64924;42.140;24.762;2023-12-07T09:09:32;99441.00;;;12.07;60.63
73870;BME280;64924;42.140;24.762;2023-12-07T09:11:58;99445.59;;;12.13;60.34
73870;BME280;64924;42.140;24.762;2023-12-07T09:14:23;99447.06;;;12.15;60.71
73870;BME280;64924;42.140;24.762;2023-12-07T09:16:48;99443.69;;;12.26;60.02
73870;BME280;64924;42.140;24.762;2023-12-07T09:19:14;99447.03;;;12.35;60.05
73870;BME280;64924;42.140;24.762;2023-12-07T09:21:40;99429.41;;;12.51;59.91
73870;BME280;64924;42.140;24.762;2023-12-07T09:24:06;99428.50;;;12.63;59.53
73870;BME280;64924;42.140;24.762;2023-12-07T09:26:32;99418.66;;;12.62;59.54
73870;BME280;64924;42.140;24.762;2023-12-07T09:28:58;99424.25;;;12.81;59.04
73870;BME280;64924;42.140;24.762;2023-12-07T09:31:23;99427.97;;;12.93;57.63
73870;BME280;64924;42.140;24.762;2023-12-07T09:33:49;99421.66;;;12.99;57.90
73870;BME280;64924;42.140;24.762;2023-12-07T09:36:18;99386.59;;;13.02;57.56
73870;BME280;64924;42.140;24.762;2023-12-07T09:38:44;99441.66;;;13.31;56.35
73870;BME280;64924;42.140;24.762;2023-12-07T09:41:10;99381.34;;;13.01;55.77
73870;BME280;64924;42.140;24.762;2023-12-07T09:43:36;99423.47;;;13.12;55.90
73870;BME280;64924;42.140;24.762;2023-12-07T09:46:02;99423.22;;;13.26;55.93
73870;BME280;64924;42.140;24.762;2023-12-07T09:48:27;99417.28;;;13.36;55.39
73870;BME280;64924;42.140;24.762;2023-12-07T09:50:55;99416.78;;;13.46;55.14
73870;BME280;64924;42.140;24.762;2023-12-07T09:53:21;99409.56;;;13.26;55.22
73870;BME280;64924;42.140;24.762;2023-12-07T09:55:47;99416.28;;;13.30;55.84
73870;BME280;64924;42.140;24.762;2023-12-07T09:58:13;99416.28;;;13.30;55.57
73870;BME280;64924;42.140;24.762;2023-12-07T10:00:39;99413.72;;;13.35;55.40
73870;BME280;64924;42.140;24.762;2023-12-07T10:03:05;99415.00;;;13.33;55.24
73870;BME280;64924;42.140;24.762;2023-12-07T10:05:34;99414.81;;;13.28;54.80
73870;BME280;64924;42.140;24.762;2023-12-07T10:08:00;99406.84;;;13.26;55.27
73870;BME280;64924;42.140;24.762;2023-12-07T10:10:25;99393.47;;;13.18;55.14
73870;BME280;64924;42.140;24.762;2023-12-07T10:12:55;99400.34;;;13.27;54.98
73870;BME280;64924;42.140;24.762;2023-12-07T10:15:23;99365.22;;;12.99;55.36
73870;BME280;64924;42.140;24.762;2023-12-07T10:17:53;99402.03;;;13.22;55.07
73870;BME280;64924;42.140;24.762;2023-12-07T10:20:24;99395.94;;;13.26;54.88
73870;BME280;64924;42.140;24.762;2023-12-07T10:23:06;99325.19;;;12.93;54.70
73870;BME280;64924;42.140;24.762;2023-12-07T10:25:40;99404.72;;;13.28;55.61
73870;BME280;64924;42.140;24.762;2023-12-07T10:28:07;99385.97;;;13.00;56.11
73870;BME280;64924;42.140;24.762;2023-12-07T10:30:34;99401.44;;;13.13;56.61
73870;BME280;64924;42.140;24.762;2023-12-07T10:33:00;99395.13;;;13.13;56.24
73870;BME280;64924;42.140;24.762;2023-12-07T10:35:25;99394.72;;;13.16;56.89
73870;BME280;64924;42.140;24.762;2023-12-07T10:37:51;99403.09;;;13.21;57.35
73870;BME280;64924;42.140;24.762;2023-12-07T10:40:16;99398.91;;;13.18;56.72
73870;BME280;64924;42.140;24.762;2023-12-07T10:42:46;99399.97;;;13.17;57.29
73870;BME280;64924;42.140;24.762;2023-12-07T10:45:14;99355.75;;;13.02;57.19
73870;BME280;64924;42.140;24.762;2023-12-07T10:47:43;99387.16;;;13.18;56.87
73870;BME280;64924;42.140;24.762;2023-12-07T10:50:10;99386.78;;;13.07;57.66
73870;BME280;64924;42.140;24.762;2023-12-07T10:52:48;99392.22;;;13.07;57.48
73870;BME280;64924;42.140;24.762;2023-12-07T10:55:17;99387.09;;;12.86;57.68
73870;BME280;64924;42.140;24.762;2023-12-07T10:57:46;99333.81;;;12.52;58.17
73870;BME280;64924;42.140;24.762;2023-12-07T11:00:12;99371.81;;;12.79;58.39
73870;BME280;64924;42.140;24.762;2023-12-07T11:02:38;99360.06;;;12.85;58.14
73870;BME280;64924;42.140;24.762;2023-12-07T11:05:06;99357.91;;;12.93;57.86
73870;BME280;64924;42.140;24.762;2023-12-07T11:07:46;99369.53;;;13.20;57.81
73870;BME280;64924;42.140;24.762;2023-12-07T11:10:43;99376.09;;;13.37;57.28
73870;BME280;64924;42.140;24.762;2023-12-07T11:13:23;99365.44;;;13.36;57.00
73870;BME280;64924;42.140;24.762;2023-12-07T11:15:50;99366.59;;;13.15;56.99
73870;BME280;64924;42.140;24.762;2023-12-07T11:18:16;99368.47;;;13.15;57.83
73870;BME280;64924;42.140;24.762;2023-12-07T11:20:43;99369.09;;;13.23;57.76
73870;BME280;64924;42.140;24.762;2023-12-07T11:23:10;99364.06;;;13.20;57.62
73870;BME280;64924;42.140;24.762;2023-12-07T11:25:36;99357.75;;;13.26;57.50
73870;BME280;64924;42.140;24.762;2023-12-07T11:28:06;99353.06;;;13.33;57.46
73870;BME280;64924;42.140;24.762;2023-12-07T11:30:35;99358.13;;;13.30;57.97
73870;BME280;64924;42.140;24.762;2023-12-07T11:33:03;99347.63;;;13.33;57.61
73870;BME280;64924;42.140;24.762;2023-12-07T11:35:29;99353.00;;;13.40;57.27
73870;BME280;64924;42.140;24.762;2023-12-07T11:38:04;99347.31;;;13.42;56.86
73870;BME280;64924;42.140;24.762;2023-12-07T11:40:34;99345.50;;;13.35;56.98
73870;BME280;64924;42.140;24.762;2023-12-07T11:43:00;99345.31;;;13.30;57.20
73870;BME280;64924;42.140;24.762;2023-12-07T11:45:43;99337.59;;;13.27;57.00
73870;BME280;64924;42.140;24.762;2023-12-07T11:48:14;99347.72;;;13.14;57.35
73870;BME280;64924;42.140;24.762;2023-12-07T11:53:26;99348.41;;;13.02;56.94
73870;BME280;64924;42.140;24.762;2023-12-07T11:55:52;99346.50;;;13.03;57.20
73870;BME280;64924;42.140;24.762;2023-12-07T11:58:18;99319.13;;;12.91;57.36
73870;BME280;64924;42.140;24.762;2023-12-07T12:00:44;99325.53;;;13.03;56.86
73870;BME280;64924;42.140;24.762;2023-12-07T12:03:14;99305.47;;;12.98;56.97
73870;BME280;64924;42.140;24.762;2023-12-07T12:05:41;99340.97;;;13.23;56.31
73870;BME280;64924;42.140;24.762;2023-12-07T12:08:08;99344.34;;;13.18;56.59
73870;BME280;64924;42.140;24.762;2023-12-07T12:10:33;99341.63;;;13.18;56.50
73870;BME280;64924;42.140;24.762;2023-12-07T12:13:03;99344.31;;;13.25;56.17
73870;BME280;64924;42.140;24.762;2023-12-07T12:15:30;99325.88;;;13.20;56.50
73870;BME280;64924;42.140;24.762;2023-12-07T12:17:56;99332.44;;;13.37;56.04
73870;BME280;64924;42.140;24.762;2023-12-07T12:20:26;99325.50;;;13.42;55.91
73870;BME280;64924;42.140;24.762;2023-12-07T12:22:52;99322.16;;;13.39;55.79
73870;BME280;64924;42.140;24.762;2023-12-07T12:25:26;99318.91;;;13.49;55.94
73870;BME280;64924;42.140;24.762;2023-12-07T12:27:55;99325.66;;;13.47;55.73
73870;BME280;64924;42.140;24.762;2023-12-07T12:30:21;99302.91;;;13.34;55.64
73870;BME280;64924;42.140;24.762;2023-12-07T12:32:48;99319.81;;;13.43;56.16
73870;BME280;64924;42.140;24.762;2023-12-07T12:35:14;99330.00;;;13.29;56.32
73870;BME280;64924;42.140;24.762;2023-12-07T12:37:41;99326.28;;;13.24;56.68
73870;BME280;64924;42.140;24.762;2023-12-07T12:40:08;99323.38;;;13.19;56.31
73870;BME280;64924;42.140;24.762;2023-12-07T12:42:34;99322.09;;;13.21;56.73
73870;BME280;64924;42.140;24.762;2023-12-07T12:45:03;99318.34;;;13.16;56.85
73870;BME280;64924;42.140;24.762;2023-12-07T12:47:29;99284.31;;;12.93;56.91
73870;BME280;64924;42.140;24.762;2023-12-07T12:49:54;99321.34;;;13.01;57.27
73870;BME280;64924;42.140;24.762;2023-12-07T12:52:20;99314.47;;;12.98;57.53
73870;BME280;64924;42.140;24.762;2023-12-07T12:54:46;99321.59;;;12.99;57.70
73870;BME280;64924;42.140;24.762;2023-12-07T12:57:14;99326.81;;;13.01;57.55